sensor_id;sensor_type;location;lat;lon;timestamp;noise_LAeq;noise_LA_min;noise_LA_max;noise_LA01;noise_LA95
63692;Laerm;49838;51.798;10.954;2023-04-03T00:00:34;39.05;32.03;51.01;;
63692;Laerm;49838;51.798;10.954;2023-04-03T00:03:01;42.40;33.28;50.11;;
63692;Laerm;49838;51.798;10.954;2023-04-03T00:05:30;39.78;32.54;48.93;;
63692;Laerm;49838;51.798;10.954;2023-04-03T00:07:57;42.18;34.28;50.39;;
63692;Laerm;49838;51.798;10.954;2023-04-03T00:10:24;40.47;34.66;53.33;;
63692;Laerm;49838;51.798;10.954;2023-04-03T00:12:51;40.97;31.69;54.94;;
63692;Laerm;49838;51.798;10.954;2023-04-03T00:15:18;40.72;31.42;55.22;;
63692;Laerm;49838;51.798;10.954;2023-04-03T00:17:46;42.74;34.22;54.99;;
63692;Laerm;49838;51.798;10.954;2023-04-03T00:20:13;40.11;34.41;49.12;;
63692;Laerm;49838;51.798;10.954;2023-04-03T00:22:41;37.80;31.43;49.49;;
63692;Laerm;49838;51.798;10.954;2023-04-03T00:25:09;40.92;33.53;48.95;;
63692;Laerm;49838;51.798;10.954;2023-04-03T00:27:37;41.38;33.46;55.68;;
63692;Laerm;49838;51.798;10.954;2023-04-03T00:30:06;33.75;29.00;42.95;;
63692;Laerm;49838;51.798;10.954;2023-04-03T00:32:34;40.50;32.22;52.98;;
63692;Laerm;49838;51.798;10.954;2023-04-03T00:35:01;39.12;33.60;49.60;;
63692;Laerm;49838;51.798;10.954;2023-04-03T00:37:29;38.11;31.05;53.71;;
63692;Laerm;49838;51.798;10.954;2023-04-03T00:39:58;34.59;30.39;44.58;;
63692;Laerm;49838;51.798;10.954;2023-04-03T00:42:25;35.95;29.33;49.83;;
63692;Laerm;49838;51.798;10.954;2023-04-03T00:45:23;40.33;32.41;49.70;;
63692;Laerm;49838;51.798;10.954;2023-04-03T00:47:51;41.93;33.16;53.22;;
63692;Laerm;49838;51.798;10.954;2023-04-03T00:50:18;39.30;33.26;48.58;;
63692;Laerm;49838;51.798;10.954;2023-04-03T00:52:46;42.10;36.56;52.54;;
63692;Laerm;49838;51.798;10.954;2023-04-03T00:55:16;42.37;36.11;50.91;;
63692;Laerm;49838;51.798;10.954;2023-04-03T00:57:45;42.93;35.99;49.21;;
63692;Laerm;49838;51.798;10.954;2023-04-03T01:00:17;45.24;36.92;53.45;;
63692;Laerm;49838;51.798;10.954;2023-04-03T01:05:21;36.39;30.61;46.42;;
63692;Laerm;49838;51.798;10.954;2023-04-03T01:07:51;38.30;33.14;48.10;;
63692;Laerm;49838;51.798;10.954;2023-04-03T01:10:20;40.21;33.33;51.59;;
63692;Laerm;49838;51.798;10.954;2023-04-03T01:12:49;41.93;33.40;51.28;;
63692;Laerm;49838;51.798;10.954;2023-04-03T01:15:18;40.50;35.19;49.04;;
63692;Laerm;49838;51.798;10.954;2023-04-03T01:17:48;42.92;32.77;55.46;;
63692;Laerm;49838;51.798;10.954;2023-04-03T01:20:50;39.92;33.18;48.79;;
63692;Laerm;49838;51.798;10.954;2023-04-03T01:23:43;42.72;35.83;51.73;;
63692;Laerm;49838;51.798;10.954;2023-04-03T01:26:17;40.75;34.05;48.12;;
63692;Laerm;49838;51.798;10.954;2023-04-03T01:28:44;41.15;34.50;49.38;;
63692;Laerm;49838;51.798;10.954;2023-04-03T01:31:16;41.44;33.87;48.70;;
63692;Laerm;49838;51.798;10.954;2023-04-03T01:33:48;42.58;34.18;50.46;;
63692;Laerm;49838;51.798;10.954;2023-04-03T01:36:18;40.05;33.65;48.03;;
63692;Laerm;49838;51.798;10.954;2023-04-03T01:38:46;40.43;35.11;47.18;;
63692;Laerm;49838;51.798;10.954;2023-04-03T01:41:13;42.13;36.07;52.64;;
63692;Laerm;49838;51.798;10.954;2023-04-03T01:43:41;40.21;32.13;54.07;;
63692;Laerm;49838;51.798;10.954;2023-04-03T01:46:09;39.01;31.16;48.97;;
63692;Laerm;49838;51.798;10.954;2023-04-03T01:48:37;41.24;32.92;56.01;;
63692;Laerm;49838;51.798;10.954;2023-04-03T01:51:05;39.86;33.12;50.39;;
63692;Laerm;49838;51.798;10.954;2023-04-03T01:53:32;37.16;32.76;44.46;;
63692;Laerm;49838;51.798;10.954;2023-04-03T01:56:00;37.61;33.27;46.21;;
63692;Laerm;49838;51.798;10.954;2023-04-03T01:58:27;38.93;33.63;47.70;;
63692;Laerm;49838;51.798;10.954;2023-04-03T02:00:54;40.58;32.26;52.17;;
63692;Laerm;49838;51.798;10.954;2023-04-03T02:03:22;42.11;33.62;54.56;;
63692;Laerm;49838;51.798;10.954;2023-04-03T02:05:49;41.38;36.87;48.04;;
63692;Laerm;49838;51.798;10.954;2023-04-03T02:08:18;43.78;35.87;53.70;;
63692;Laerm;49838;51.798;10.954;2023-04-03T02:10:47;43.24;36.35;53.53;;
63692;Laerm;49838;51.798;10.954;2023-04-03T02:13:14;45.02;38.72;52.17;;
63692;Laerm;49838;51.798;10.954;2023-04-03T02:15:41;43.40;38.41;54.73;;
63692;Laerm;49838;51.798;10.954;2023-04-03T02:18:09;43.59;37.68;51.52;;
63692;Laerm;49838;51.798;10.954;2023-04-03T02:20:37;39.85;35.46;51.65;;
63692;Laerm;49838;51.798;10.954;2023-04-03T02:23:04;41.50;35.98;56.11;;
63692;Laerm;49838;51.798;10.954;2023-04-03T02:25:33;42.75;36.18;54.19;;
63692;Laerm;49838;51.798;10.954;2023-04-03T02:28:01;45.23;38.02;57.75;;
63692;Laerm;49838;51.798;10.954;2023-04-03T02:30:28;43.45;38.66;50.50;;
63692;Laerm;49838;51.798;10.954;2023-04-03T02:32:55;43.17;36.58;54.65;;
63692;Laerm;49838;51.798;10.954;2023-04-03T02:35:22;42.80;37.02;51.46;;
63692;Laerm;49838;51.798;10.954;2023-04-03T02:37:50;45.00;38.96;53.53;;
63692;Laerm;49838;51.798;10.954;2023-04-03T02:40:17;43.71;37.37;54.40;;
63692;Laerm;49838;51.798;10.954;2023-04-03T02:42:46;43.15;36.53;56.35;;
63692;Laerm;49838;51.798;10.954;2023-04-03T02:45:13;44.82;38.28;52.69;;
63692;Laerm;49838;51.798;10.954;2023-04-03T02:47:41;50.34;40.63;64.31;;
63692;Laerm;49838;51.798;10.954;2023-04-03T02:50:08;44.62;38.29;50.07;;
63692;Laerm;49838;51.798;10.954;2023-04-03T02:52:36;41.09;34.85;48.63;;
63692;Laerm;49838;51.798;10.954;2023-04-03T02:55:03;41.20;36.53;47.59;;
63692;Laerm;49838;51.798;10.954;2023-04-03T02:57:31;44.07;37.94;57.04;;
63692;Laerm;49838;51.798;10.954;2023-04-03T02:59:59;39.64;34.44;47.72;;
63692;Laerm;49838;51.798;10.954;2023-04-03T03:02:27;44.85;36.50;53.54;;
63692;Laerm;49838;51.798;10.954;2023-04-03T03:04:54;44.96;38.43;51.03;;
63692;Laerm;49838;51.798;10.954;2023-04-03T03:07:21;45.53;40.48;60.83;;
63692;Laerm;49838;51.798;10.954;2023-04-03T03:09:49;44.44;37.83;53.95;;
63692;Laerm;49838;51.798;10.954;2023-04-03T03:12:16;46.36;39.83;56.35;;
63692;Laerm;49838;51.798;10.954;2023-04-03T03:14:47;45.50;40.24;52.75;;
63692;Laerm;49838;51.798;10.954;2023-04-03T03:17:16;44.92;39.67;51.70;;
63692;Laerm;49838;51.798;10.954;2023-04-03T03:19:43;44.92;40.71;53.20;;
63692;Laerm;49838;51.798;10.954;2023-04-03T03:22:11;54.97;40.25;71.29;;
63692;Laerm;49838;51.798;10.954;2023-04-03T03:24:39;52.83;40.45;66.26;;
63692;Laerm;49838;51.798;10.954;2023-04-03T03:27:06;50.55;40.45;66.09;;
63692;Laerm;49838;51.798;10.954;2023-04-03T03:29:33;49.01;40.21;65.49;;
63692;Laerm;49838;51.798;10.954;2023-04-03T03:32:00;54.33;41.74;73.17;;
63692;Laerm;49838;51.798;10.954;2023-04-03T03:34:29;53.26;39.74;70.20;;
63692;Laerm;49838;51.798;10.954;2023-04-03T03:36:56;49.04;42.84;60.41;;
63692;Laerm;49838;51.798;10.954;2023-04-03T03:39:23;50.18;42.02;60.39;;
63692;Laerm;49838;51.798;10.954;2023-04-03T03:41:51;53.44;42.29;65.58;;
63692;Laerm;49838;51.798;10.954;2023-04-03T03:44:19;53.16;41.81;64.91;;
63692;Laerm;49838;51.798;10.954;2023-04-03T03:46:47;55.36;42.88;68.49;;
63692;Laerm;49838;51.798;10.954;2023-04-03T03:49:14;54.00;44.53;66.37;;
63692;Laerm;49838;51.798;10.954;2023-04-03T03:51:43;57.88;44.62;73.57;;
63692;Laerm;49838;51.798;10.954;2023-04-03T03:54:10;59.27;45.62;76.70;;
63692;Laerm;49838;51.798;10.954;2023-04-03T03:56:38;58.47;43.18;75.32;;
63692;Laerm;49838;51.798;10.954;2023-04-03T03:59:05;59.62;44.43;76.85;;
63692;Laerm;49838;51.798;10.954;2023-04-03T04:01:33;58.52;44.31;77.93;;
63692;Laerm;49838;51.798;10.954;2023-04-03T04:04:00;57.84;43.85;76.54;;
63692;Laerm;49838;51.798;10.954;2023-04-03T04:06:28;58.51;43.34;76.72;;
63692;Laerm;49838;51.798;10.954;2023-04-03T04:08:56;50.37;41.93;59.80;;
63692;Laerm;49838;51.798;10.954;2023-04-03T04:11:24;51.33;46.21;59.15;;
63692;Laerm;49838;51.798;10.954;2023-04-03T04:13:51;57.87;45.62;75.13;;
63692;Laerm;49838;51.798;10.954;2023-04-03T04:16:18;51.06;44.42;59.67;;
63692;Laerm;49838;51.798;10.954;2023-04-03T04:18:45;56.20;46.14;71.46;;
63692;Laerm;49838;51.798;10.954;2023-04-03T04:21:12;50.38;44.87;58.83;;
63692;Laerm;49838;51.798;10.954;2023-04-03T04:23:40;54.20;45.19;70.14;;
63692;Laerm;49838;51.798;10.954;2023-04-03T04:26:08;49.18;43.32;61.80;;
63692;Laerm;49838;51.798;10.954;2023-04-03T04:28:36;59.34;44.91;75.55;;
63692;Laerm;49838;51.798;10.954;2023-04-03T04:31:03;51.75;46.69;58.27;;
63692;Laerm;49838;51.798;10.954;2023-04-03T04:33:30;61.36;47.31;80.89;;
63692;Laerm;49838;51.798;10.954;2023-04-03T04:35:57;56.65;45.26;75.03;;
63692;Laerm;49838;51.798;10.954;2023-04-03T04:38:25;56.08;45.75;71.60;;
63692;Laerm;49838;51.798;10.954;2023-04-03T04:40:52;55.15;46.42;71.99;;
63692;Laerm;49838;51.798;10.954;2023-04-03T04:43:21;55.24;46.18;70.92;;
63692;Laerm;49838;51.798;10.954;2023-04-03T04:45:48;61.21;47.47;74.28;;
63692;Laerm;49838;51.798;10.954;2023-04-03T04:48:15;57.51;47.03;70.07;;
63692;Laerm;49838;51.798;10.954;2023-04-03T04:50:43;56.65;47.19;71.39;;
63692;Laerm;49838;51.798;10.954;2023-04-03T04:53:10;57.00;48.77;69.13;;
63692;Laerm;49838;51.798;10.954;2023-04-03T04:55:37;59.07;46.84;73.29;;
63692;Laerm;49838;51.798;10.954;2023-04-03T04:58:05;55.82;47.88;73.84;;
63692;Laerm;49838;51.798;10.954;2023-04-03T05:00:33;60.34;47.59;73.22;;
63692;Laerm;49838;51.798;10.954;2023-04-03T05:03:01;61.07;47.77;78.19;;
63692;Laerm;49838;51.798;10.954;2023-04-03T05:05:28;62.38;47.75;77.49;;
63692;Laerm;49838;51.798;10.954;2023-04-03T05:07:55;53.61;45.00;69.29;;
63692;Laerm;49838;51.798;10.954;2023-04-03T05:10:22;55.94;44.49;73.87;;
63692;Laerm;49838;51.798;10.954;2023-04-03T05:12:50;58.93;47.85;72.07;;
63692;Laerm;49838;51.798;10.954;2023-04-03T05:15:17;60.15;46.64;73.77;;
63692;Laerm;49838;51.798;10.954;2023-04-03T05:17:46;56.89;46.50;73.29;;
63692;Laerm;49838;51.798;10.954;2023-04-03T05:20:13;58.20;46.54;75.21;;
63692;Laerm;49838;51.798;10.954;2023-04-03T05:22:40;59.26;46.39;73.46;;
63692;Laerm;49838;51.798;10.954;2023-04-03T05:25:08;60.60;49.16;75.78;;
63692;Laerm;49838;51.798;10.954;2023-04-03T05:27:36;59.25;49.03;72.99;;
63692;Laerm;49838;51.798;10.954;2023-04-03T05:30:03;59.47;47.31;75.21;;
63692;Laerm;49838;51.798;10.954;2023-04-03T05:32:31;61.59;47.31;79.60;;
63692;Laerm;49838;51.798;10.954;2023-04-03T05:35:00;58.55;46.63;75.93;;
63692;Laerm;49838;51.798;10.954;2023-04-03T05:37:28;61.77;46.12;74.61;;
63692;Laerm;49838;51.798;10.954;2023-04-03T05:39:55;62.19;46.34;79.77;;
63692;Laerm;49838;51.798;10.954;2023-04-03T05:42:22;55.52;43.85;71.89;;
63692;Laerm;49838;51.798;10.954;2023-04-03T05:44:50;62.44;43.43;80.04;;
63692;Laerm;49838;51.798;10.954;2023-04-03T05:47:17;55.23;43.80;72.96;;
63692;Laerm;49838;51.798;10.954;2023-04-03T05:49:44;58.71;42.57;73.86;;
63692;Laerm;49838;51.798;10.954;2023-04-03T05:52:20;53.20;42.55;76.69;;
63692;Laerm;49838;51.798;10.954;2023-04-03T05:54:48;57.72;44.41;72.55;;
63692;Laerm;49838;51.798;10.954;2023-04-03T05:57:16;56.74;45.64;72.71;;
63692;Laerm;49838;51.798;10.954;2023-04-03T05:59:45;57.57;41.32;73.62;;
63692;Laerm;49838;51.798;10.954;2023-04-03T06:02:13;55.16;41.42;69.88;;
63692;Laerm;49838;51.798;10.954;2023-04-03T06:04:41;58.06;44.14;71.97;;
63692;Laerm;49838;51.798;10.954;2023-04-03T06:07:11;57.18;44.01;72.02;;
63692;Laerm;49838;51.798;10.954;2023-04-03T06:09:41;58.67;44.58;75.81;;
63692;Laerm;49838;51.798;10.954;2023-04-03T06:12:08;62.34;44.11;80.79;;
63692;Laerm;49838;51.798;10.954;2023-04-03T06:14:36;49.73;44.18;57.80;;
63692;Laerm;49838;51.798;10.954;2023-04-03T06:17:04;56.51;43.91;71.91;;
63692;Laerm;49838;51.798;10.954;2023-04-03T06:19:32;52.72;44.36;68.51;;
63692;Laerm;49838;51.798;10.954;2023-04-03T06:21:59;50.83;42.13;64.37;;
63692;Laerm;49838;51.798;10.954;2023-04-03T06:24:27;54.66;44.57;71.55;;
63692;Laerm;49838;51.798;10.954;2023-04-03T06:26:55;61.15;44.15;74.82;;
63692;Laerm;49838;51.798;10.954;2023-04-03T06:29:23;46.58;40.62;55.27;;
63692;Laerm;49838;51.798;10.954;2023-04-03T06:31:51;60.25;43.29;74.02;;
63692;Laerm;49838;51.798;10.954;2023-04-03T06:34:18;58.55;43.63;74.52;;
63692;Laerm;49838;51.798;10.954;2023-04-03T06:36:46;57.00;42.31;73.17;;
63692;Laerm;49838;51.798;10.954;2023-04-03T06:39:16;61.48;41.97;79.34;;
63692;Laerm;49838;51.798;10.954;2023-04-03T06:41:44;59.97;41.27;79.33;;
63692;Laerm;49838;51.798;10.954;2023-04-03T06:44:13;60.02;43.69;72.32;;
63692;Laerm;49838;51.798;10.954;2023-04-03T06:46:43;58.79;40.49;75.24;;
63692;Laerm;49838;51.798;10.954;2023-04-03T06:49:11;58.36;41.02;72.25;;
63692;Laerm;49838;51.798;10.954;2023-04-03T06:51:38;61.13;41.40;76.45;;
63692;Laerm;49838;51.798;10.954;2023-04-03T06:54:06;60.27;42.83;75.32;;
63692;Laerm;49838;51.798;10.954;2023-04-03T06:56:34;62.02;44.08;77.74;;
63692;Laerm;49838;51.798;10.954;2023-04-03T06:59:02;61.41;40.91;76.37;;
63692;Laerm;49838;51.798;10.954;2023-04-03T07:01:31;62.78;39.61;76.73;;
63692;Laerm;49838;51.798;10.954;2023-04-03T07:03:58;56.86;39.51;72.69;;
63692;Laerm;49838;51.798;10.954;2023-04-03T07:06:26;60.38;41.41;74.33;;
63692;Laerm;49838;51.798;10.954;2023-04-03T07:08:54;59.80;44.73;71.35;;
63692;Laerm;49838;51.798;10.954;2023-04-03T07:11:22;53.86;45.60;69.60;;
63692;Laerm;49838;51.798;10.954;2023-04-03T07:13:49;59.86;43.75;72.04;;
63692;Laerm;49838;51.798;10.954;2023-04-03T07:16:17;60.31;45.44;73.12;;
63692;Laerm;49838;51.798;10.954;2023-04-03T07:18:46;60.14;42.02;75.67;;
63692;Laerm;49838;51.798;10.954;2023-04-03T07:21:13;59.19;42.70;77.23;;
63692;Laerm;49838;51.798;10.954;2023-04-03T07:23:41;56.79;41.78;70.43;;
63692;Laerm;49838;51.798;10.954;2023-04-03T07:26:08;58.75;43.85;72.76;;
63692;Laerm;49838;51.798;10.954;2023-04-03T07:28:35;59.34;43.94;72.78;;
63692;Laerm;49838;51.798;10.954;2023-04-03T07:31:06;58.05;44.87;71.31;;
63692;Laerm;49838;51.798;10.954;2023-04-03T07:33:34;62.48;43.78;78.13;;
63692;Laerm;49838;51.798;10.954;2023-04-03T07:36:06;59.92;44.19;75.91;;
63692;Laerm;49838;51.798;10.954;2023-04-03T07:38:33;59.20;44.07;74.06;;
63692;Laerm;49838;51.798;10.954;2023-04-03T07:41:01;52.58;42.57;68.06;;
63692;Laerm;49838;51.798;10.954;2023-04-03T07:43:29;56.32;41.70;69.74;;
63692;Laerm;49838;51.798;10.954;2023-04-03T07:45:56;57.89;42.57;70.66;;
63692;Laerm;49838;51.798;10.954;2023-04-03T07:48:25;58.61;43.84;70.65;;
63692;Laerm;49838;51.798;10.954;2023-04-03T07:50:53;60.89;44.33;74.24;;
63692;Laerm;49838;51.798;10.954;2023-04-03T07:53:22;61.76;45.27;73.67;;
63692;Laerm;49838;51.798;10.954;2023-04-03T07:55:49;64.78;44.94;82.99;;
63692;Laerm;49838;51.798;10.954;2023-04-03T07:58:21;58.00;39.40;73.16;;
63692;Laerm;49838;51.798;10.954;2023-04-03T08:00:49;60.23;41.77;72.64;;
63692;Laerm;49838;51.798;10.954;2023-04-03T08:03:16;64.05;41.61;80.78;;
63692;Laerm;49838;51.798;10.954;2023-04-03T08:05:45;59.81;42.00;74.15;;
63692;Laerm;49838;51.798;10.954;2023-04-03T08:08:14;58.42;41.99;75.76;;
63692;Laerm;49838;51.798;10.954;2023-04-03T08:10:43;66.51;46.09;83.18;;
63692;Laerm;49838;51.798;10.954;2023-04-03T08:13:10;59.66;41.43;75.76;;
63692;Laerm;49838;51.798;10.954;2023-04-03T08:15:38;60.64;45.35;72.27;;
63692;Laerm;49838;51.798;10.954;2023-04-03T08:18:05;58.40;41.31;69.72;;
63692;Laerm;49838;51.798;10.954;2023-04-03T08:20:32;60.36;43.65;70.23;;
63692;Laerm;49838;51.798;10.954;2023-04-03T08:22:59;57.99;42.77;74.35;;
63692;Laerm;49838;51.798;10.954;2023-04-03T08:25:26;59.88;44.01;75.13;;
63692;Laerm;49838;51.798;10.954;2023-04-03T08:27:56;55.38;39.60;72.97;;
63692;Laerm;49838;51.798;10.954;2023-04-03T08:30:24;60.26;41.20;75.61;;
63692;Laerm;49838;51.798;10.954;2023-04-03T08:32:51;65.69;45.33;83.04;;
63692;Laerm;49838;51.798;10.954;2023-04-03T08:35:19;58.72;44.00;76.81;;
63692;Laerm;49838;51.798;10.954;2023-04-03T08:37:47;55.74;45.20;68.16;;
63692;Laerm;49838;51.798;10.954;2023-04-03T08:40:16;59.81;43.17;76.50;;
63692;Laerm;49838;51.798;10.954;2023-04-03T08:42:51;54.96;43.47;69.29;;
63692;Laerm;49838;51.798;10.954;2023-04-03T08:45:27;61.76;46.17;74.50;;
63692;Laerm;49838;51.798;10.954;2023-04-03T08:48:04;55.80;43.08;70.32;;
63692;Laerm;49838;51.798;10.954;2023-04-03T08:50:36;57.67;42.15;71.36;;
63692;Laerm;49838;51.798;10.954;2023-04-03T08:53:06;62.40;42.36;77.93;;
63692;Laerm;49838;51.798;10.954;2023-04-03T08:55:40;63.72;43.63;80.57;;
63692;Laerm;49838;51.798;10.954;2023-04-03T08:58:12;58.39;43.77;72.48;;
63692;Laerm;49838;51.798;10.954;2023-04-03T09:00:46;55.57;41.70;74.21;;
63692;Laerm;49838;51.798;10.954;2023-04-03T09:03:16;58.97;40.97;72.48;;
63692;Laerm;49838;51.798;10.954;2023-04-03T09:05:47;60.38;47.01;71.87;;
63692;Laerm;49838;51.798;10.954;2023-04-03T09:08:22;59.44;43.50;73.27;;
63692;Laerm;49838;51.798;10.954;2023-04-03T09:10:58;58.63;43.62;77.70;;
63692;Laerm;49838;51.798;10.954;2023-04-03T09:13:33;60.60;42.87;74.02;;
63692;Laerm;49838;51.798;10.954;2023-04-03T09:16:15;59.95;43.64;72.23;;
63692;Laerm;49838;51.798;10.954;2023-04-03T09:18:53;57.53;42.38;75.85;;
63692;Laerm;49838;51.798;10.954;2023-04-03T09:21:28;62.76;43.75;78.38;;
63692;Laerm;49838;51.798;10.954;2023-04-03T09:24:00;56.62;43.39;72.35;;
63692;Laerm;49838;51.798;10.954;2023-04-03T09:26:30;53.92;43.25;69.21;;
63692;Laerm;49838;51.798;10.954;2023-04-03T09:29:02;59.86;43.11;72.84;;
63692;Laerm;49838;51.798;10.954;2023-04-03T09:31:36;55.62;42.16;72.82;;
63692;Laerm;49838;51.798;10.954;2023-04-03T09:34:07;70.45;45.53;84.16;;
63692;Laerm;49838;51.798;10.954;2023-04-03T09:36:40;63.14;45.36;76.98;;
63692;Laerm;49838;51.798;10.954;2023-04-03T09:39:11;58.52;43.61;71.51;;
63692;Laerm;49838;51.798;10.954;2023-04-03T09:41:39;57.90;41.96;74.47;;
63692;Laerm;49838;51.798;10.954;2023-04-03T09:44:20;58.71;41.43;74.42;;
63692;Laerm;49838;51.798;10.954;2023-04-03T09:46:49;57.88;42.85;71.89;;
63692;Laerm;49838;51.798;10.954;2023-04-03T09:49:17;60.57;44.41;78.41;;
63692;Laerm;49838;51.798;10.954;2023-04-03T09:51:45;57.53;41.90;74.81;;
63692;Laerm;49838;51.798;10.954;2023-04-03T09:54:32;60.50;44.12;72.53;;
63692;Laerm;49838;51.798;10.954;2023-04-03T09:57:03;58.33;44.50;73.58;;
63692;Laerm;49838;51.798;10.954;2023-04-03T09:59:32;62.88;44.53;77.35;;
63692;Laerm;49838;51.798;10.954;2023-04-03T10:02:03;57.37;41.16;72.89;;
63692;Laerm;49838;51.798;10.954;2023-04-03T10:04:40;57.86;42.96;73.84;;
63692;Laerm;49838;51.798;10.954;2023-04-03T10:07:30;58.90;43.55;77.92;;
63692;Laerm;49838;51.798;10.954;2023-04-03T10:09:58;57.50;44.67;73.57;;
63692;Laerm;49838;51.798;10.954;2023-04-03T10:12:26;56.13;42.98;71.99;;
63692;Laerm;49838;51.798;10.954;2023-04-03T10:14:57;60.52;42.17;78.01;;
63692;Laerm;49838;51.798;10.954;2023-04-03T10:17:37;60.08;41.98;79.17;;
63692;Laerm;49838;51.798;10.954;2023-04-03T10:20:23;56.18;41.42;69.72;;
63692;Laerm;49838;51.798;10.954;2023-04-03T10:23:02;54.63;41.70;68.53;;
63692;Laerm;49838;51.798;10.954;2023-04-03T10:25:35;56.32;42.62;71.72;;
63692;Laerm;49838;51.798;10.954;2023-04-03T10:28:10;57.69;43.86;72.88;;
63692;Laerm;49838;51.798;10.954;2023-04-03T10:30:46;50.39;40.75;64.08;;
63692;Laerm;49838;51.798;10.954;2023-04-03T10:33:25;61.92;42.84;79.54;;
63692;Laerm;49838;51.798;10.954;2023-04-03T10:36:05;51.64;42.88;68.49;;
63692;Laerm;49838;51.798;10.954;2023-04-03T10:38:43;58.24;41.80;72.40;;
63692;Laerm;49838;51.798;10.954;2023-04-03T10:41:17;54.99;42.92;69.02;;
63692;Laerm;49838;51.798;10.954;2023-04-03T10:43:50;59.29;44.80;73.25;;
63692;Laerm;49838;51.798;10.954;2023-04-03T10:46:27;58.27;42.36;71.74;;
63692;Laerm;49838;51.798;10.954;2023-04-03T10:49:08;61.49;43.69;73.35;;
63692;Laerm;49838;51.798;10.954;2023-04-03T10:51:41;64.21;43.41;80.78;;
63692;Laerm;49838;51.798;10.954;2023-04-03T10:54:13;56.91;44.66;72.23;;
63692;Laerm;49838;51.798;10.954;2023-04-03T10:56:47;60.38;43.99;73.25;;
63692;Laerm;49838;51.798;10.954;2023-04-03T10:59:20;52.89;41.57;70.52;;
63692;Laerm;49838;51.798;10.954;2023-04-03T11:01:53;59.63;43.53;73.26;;
63692;Laerm;49838;51.798;10.954;2023-04-03T11:04:26;56.28;41.90;69.94;;
63692;Laerm;49838;51.798;10.954;2023-04-03T11:06:57;52.13;43.35;64.78;;
63692;Laerm;49838;51.798;10.954;2023-04-03T11:09:28;60.47;42.12;76.90;;
63692;Laerm;49838;51.798;10.954;2023-04-03T11:12:02;57.24;40.77;71.04;;
63692;Laerm;49838;51.798;10.954;2023-04-03T11:14:32;62.14;52.63;73.22;;
63692;Laerm;49838;51.798;10.954;2023-04-03T11:17:11;65.62;49.01;82.53;;
63692;Laerm;49838;51.798;10.954;2023-04-03T11:19:46;53.24;41.77;66.36;;
63692;Laerm;49838;51.798;10.954;2023-04-03T11:22:22;56.84;39.91;74.14;;
63692;Laerm;49838;51.798;10.954;2023-04-03T11:24:57;57.24;43.24;71.13;;
63692;Laerm;49838;51.798;10.954;2023-04-03T11:27:27;58.64;43.77;71.70;;
63692;Laerm;49838;51.798;10.954;2023-04-03T11:29:59;58.33;41.73;72.90;;
63692;Laerm;49838;51.798;10.954;2023-04-03T11:32:48;58.81;40.89;73.53;;
63692;Laerm;49838;51.798;10.954;2023-04-03T11:35:21;61.51;43.22;75.35;;
63692;Laerm;49838;51.798;10.954;2023-04-03T11:37:50;60.31;43.10;73.88;;
63692;Laerm;49838;51.798;10.954;2023-04-03T11:40:22;55.34;41.13;74.19;;
63692;Laerm;49838;51.798;10.954;2023-04-03T11:42:55;57.61;42.12;72.54;;
63692;Laerm;49838;51.798;10.954;2023-04-03T11:45:34;56.71;41.68;74.40;;
63692;Laerm;49838;51.798;10.954;2023-04-03T11:48:05;61.00;43.81;75.58;;
63692;Laerm;49838;51.798;10.954;2023-04-03T11:50:43;55.52;41.69;70.02;;
63692;Laerm;49838;51.798;10.954;2023-04-03T11:53:35;54.37;42.95;71.28;;
63692;Laerm;49838;51.798;10.954;2023-04-03T11:56:29;58.80;42.54;71.29;;
63692;Laerm;49838;51.798;10.954;2023-04-03T11:59:22;57.15;43.61;70.55;;
63692;Laerm;49838;51.798;10.954;2023-04-03T12:01:51;58.19;43.07;74.93;;
63692;Laerm;49838;51.798;10.954;2023-04-03T12:04:21;62.68;40.48;82.45;;
63692;Laerm;49838;51.798;10.954;2023-04-03T12:07:18;53.91;40.84;72.15;;
63692;Laerm;49838;51.798;10.954;2023-04-03T12:09:58;62.27;42.95;76.39;;
63692;Laerm;49838;51.798;10.954;2023-04-03T12:12:37;58.82;38.63;73.00;;
63692;Laerm;49838;51.798;10.954;2023-04-03T12:17:57;55.81;40.24;74.33;;
63692;Laerm;49838;51.798;10.954;2023-04-03T12:20:46;56.35;41.11;70.05;;
63692;Laerm;49838;51.798;10.954;2023-04-03T12:23:27;55.91;43.50;73.93;;
63692;Laerm;49838;51.798;10.954;2023-04-03T12:26:03;59.63;40.90;72.56;;
63692;Laerm;49838;51.798;10.954;2023-04-03T12:28:39;52.78;40.93;68.08;;
63692;Laerm;49838;51.798;10.954;2023-04-03T12:31:10;57.41;41.22;73.19;;
63692;Laerm;49838;51.798;10.954;2023-04-03T12:33:49;61.71;41.23;78.20;;
63692;Laerm;49838;51.798;10.954;2023-04-03T12:36:28;60.06;42.46;75.71;;
63692;Laerm;49838;51.798;10.954;2023-04-03T12:39:09;57.60;40.91;73.93;;
63692;Laerm;49838;51.798;10.954;2023-04-03T12:41:49;58.89;44.51;74.16;;
63692;Laerm;49838;51.798;10.954;2023-04-03T12:44:35;57.67;44.50;71.57;;
63692;Laerm;49838;51.798;10.954;2023-04-03T12:47:19;59.31;44.47;71.76;;
63692;Laerm;49838;51.798;10.954;2023-04-03T12:49:49;59.83;44.51;72.26;;
63692;Laerm;49838;51.798;10.954;2023-04-03T12:52:21;58.19;41.99;78.45;;
63692;Laerm;49838;51.798;10.954;2023-04-03T12:54:52;61.76;43.83;81.07;;
63692;Laerm;49838;51.798;10.954;2023-04-03T12:57:23;53.59;41.80;70.78;;
63692;Laerm;49838;51.798;10.954;2023-04-03T12:59:51;53.57;42.14;70.08;;
63692;Laerm;49838;51.798;10.954;2023-04-03T13:02:22;57.31;43.19;73.29;;
63692;Laerm;49838;51.798;10.954;2023-04-03T13:04:51;52.88;40.16;70.30;;
63692;Laerm;49838;51.798;10.954;2023-04-03T13:07:21;59.30;42.05;73.29;;
63692;Laerm;49838;51.798;10.954;2023-04-03T13:09:59;56.92;40.98;73.77;;
63692;Laerm;49838;51.798;10.954;2023-04-03T13:12:26;59.79;42.50;74.09;;
63692;Laerm;49838;51.798;10.954;2023-04-03T13:14:56;59.39;42.01;72.19;;
63692;Laerm;49838;51.798;10.954;2023-04-03T13:17:24;61.91;41.50;83.14;;
63692;Laerm;49838;51.798;10.954;2023-04-03T13:19:52;61.98;41.87;83.63;;
63692;Laerm;49838;51.798;10.954;2023-04-03T13:22:26;63.42;45.77;78.26;;
63692;Laerm;49838;51.798;10.954;2023-04-03T13:24:59;56.15;41.52;70.84;;
63692;Laerm;49838;51.798;10.954;2023-04-03T13:27:30;57.98;41.79;76.46;;
63692;Laerm;49838;51.798;10.954;2023-04-03T13:30:00;57.83;42.17;74.51;;
63692;Laerm;49838;51.798;10.954;2023-04-03T13:32:31;57.09;40.77;70.31;;
63692;Laerm;49838;51.798;10.954;2023-04-03T13:34:59;60.54;40.56;76.20;;
63692;Laerm;49838;51.798;10.954;2023-04-03T13:37:28;63.14;41.40;82.37;;
63692;Laerm;49838;51.798;10.954;2023-04-03T13:40:01;60.18;41.85;75.59;;
63692;Laerm;49838;51.798;10.954;2023-04-03T13:42:31;54.97;42.31;72.14;;
63692;Laerm;49838;51.798;10.954;2023-04-03T13:45:11;60.10;41.19;75.51;;
63692;Laerm;49838;51.798;10.954;2023-04-03T13:47:40;57.61;42.46;70.68;;
63692;Laerm;49838;51.798;10.954;2023-04-03T13:50:17;59.04;42.38;78.64;;
63692;Laerm;49838;51.798;10.954;2023-04-03T13:52:53;57.40;41.86;75.71;;
63692;Laerm;49838;51.798;10.954;2023-04-03T13:55:24;58.32;43.40;74.80;;